Cedaredge, CO

03:26 AM MDT am 15. September 2014 (GMT -0600)
Montrose Regional | Change Station
CLOSE
Current Station
Flughafen
Location: Montrose,
Höhe: 5758 ft
Wetterstationen in der Umgebung

Höhe 5758 ft 38.51 °N, 107.90 °W | Updated 33 minutes ago

Heiter
Heiter
56 °F
gefühlte 56 °F
N
9
Wind Wechselnd Wind aus Südost

Heute
Max. -- | schwach -- °F
--% Regenrisiko
Gestern
Max. -- | schwach -- °F
Precip. -- inch
6:53 AM 7:19 PM
Drittes Viertel, 57% visible
Druck 30.00 inch
Sichtweite 10.0 Meilen
Wolken Heiter
Taupunkt 41 °F
Feuchtigkeit 57%
Regen 0.00 inch
Schneehöhe 0 in , 0 in , 0 in
UV 0 von 12
Pollen 6.00 von 12
Luftqualität Nicht verfügbar..
Flu Activity Nicht verfügbar..
METAR KMTJ 150853Z AUTO 13008KT 10SM CLR 13/05 A3022 RMK AO2 SLP158 T01330050 51010

More Conditions Fewer Conditions

Druck 30.00 inch
Sichtweite 10.0 Meilen
Wolken Heiter
Taupunkt 41 °F
Feuchtigkeit 57%
Regen 0.00 inch
Schneehöhe 0 in , 0 in , 0 in
UV 0 von 12
Pollen 6.00 von 12
Luftqualität Nicht verfügbar..
Flu Activity Nicht verfügbar..
METAR KMTJ 150853Z AUTO 13008KT 10SM CLR 13/05 A3022 RMK AO2 SLP158 T01330050 51010

More Conditions Fewer Conditions

10-Day Weather Forecast

Almanac

Astronomie

Sep. 15, 2014 Aufgang Untergang
Genaue Zeit 06:53 MDT 19:19 MDT
Bürgerliche Dämmerung 06:26 MDT 19:46 MDT
Nautische Dämmerung 05:54 MDT 20:17 MDT
Astronomische Dämmerung 05:22 MDT 20:50 MDT
Mond kein Mondaufgang 13:52 MDT
Länge des sichtbaren Lichts 13h 20m
Tageslänge
12h 26m
Tomorrow will be 2m 31s shorter.
Drittes Viertel, 57% of the Moon is Illuminated
Heute
Drittes Viertel
Sept 15
Letztes Viertel
Sept 24
Neu
Okt 1
Erstes Viertel
Okt 8
Vollmond

Heutige Rekorde

State Highs State Lows

Community

WunderPhotos

Upload Photos

1,753,426 Fotos hochgeladen!

Nearby

Schneehöhe

Station Depth Höhe
Trapper Lake 0 in 9700 ft
North Lost Trail 0 in 9200 ft
Summit Ranch 1 in 9400 ft
Grayback 0 in 11620 ft
Lone Cone 6 in 9600 ft

Erdbebenaktivität

Stadt Distance Mag. Time & Date
No recent earthquake activity has been reported nearby.
Minimum magnitude displayed is 2.5.

küstennahe Wassertemperaturen

Ort Temperatur
Kein Stationsbericht

Wetterstationen in der Umgebung